Impacts TAF Board INFO
FOR SITUATIONAL AWARENESS. NOT TO BE USED FOR FLIGHT PLANNING PURPOSES.
IDs:

KPIT - Pittsburgh Intl, PA, US

Issued at 0234 UTC 21 Jan 2018
Updated at 0439 UTC 21 Jan 2018
Potential Impact None Slight Moderate High
Time0429Z 21/05Z 21/06Z 21/07Z 21/08Z 21/09Z 21/10Z 21/11Z 21/12Z 21/13Z 21/14Z 21/15Z 21/16Z 21/17Z>>
Type OBS PRVL PRVL PRVL PRVL PRVL PRVL PRVL PRVL PRVL PRVL PRVL PRVL PRVL
VIS 10 >6 >6 5 5 5 3 3 3 3 3 >6 >6 >6
CIG 22 25 25 15 15 15 8 8 8 8 8 10 10 10
Cover OVC BKN BKN OVC OVC OVC OVC OVC OVC OVC OVC OVC OVC OVC
FltCat MVFR MVFR MVFR MVFR MVFR MVFR IFR IFR IFR IFR IFR MVFR MVFR MVFR
WX -- -- -- BR BR BR -DZ -DZ -DZ -DZ -DZ VCSH VCSH VCSH
WDir 240 230 230 230 230 230 220 220 220 220 220 210 210 210
WSpd 4 6 6 5 5 5 5 5 5 5 5 5 5 5
WGst -- -- -- -- -- -- -- -- -- -- -- -- -- --

Raw TAF
KPIT 210234Z 2103/2206 24006KT P6SM FEW250
  FM210400 23006KT P6SM BKN025
  FM210700 23005KT 5SM BR OVC015
  FM211000 22005KT 3SM -DZ OVC008
  FM211500 21005KT P6SM VCSH OVC010


Raw METAR
KPIT 210429Z 24004KT 10SM OVC022 04/M01 A3010 RMK AO2 T00441011
KPIT 210351Z 26004KT 10SM FEW025 04/M02 A3010 RMK AO2 SLP207 T00391017
KPIT 210251Z 21003KT 10SM FEW250 03/M02 A3009 RMK AO2 SLP206 T00331022 53009
KPIT 210151Z 00000KT 10SM FEW250 04/M02 A3008 RMK AO2 SLP202 T00441022

METAR Board
Radar Display
Forecast Discussion

FOR SITUATIONAL AWARENESS. NOT TO BE USED FOR FLIGHT PLANNING PURPOSES.